Impacts METAR Board
IDs:

KMCO - Orlando Intl, FL, US

Updated at: 0300 UTC 23 May 2018
Potential Impact None Slight Moderate High
Time 22/15Z 22/16Z 22/17Z 22/18Z 22/19Z 22/20Z 22/21Z 22/22Z 22/23Z 23/00Z 23/01Z 23/02Z 23/03Z
Temp77 78 78 80 81 78 80 79 77 76 75 74 73
Dewpt68 65 70 71 72 66 71 70 71 70 70 67 67
Altim30.13 30.13 30.12 30.10 30.09 30.08 30.06 30.07 30.07 30.08 30.09 30.09 30.10
VIS10 10 10 10 10 10 10 10 10 10 10 10 10
CIG80 95 85 85 19 70 75 140 140 140 140 140 --
CoverBKNBKNOVCBKNOVCBKNBKNBKNBKNBKNBKNBKNSCT
FltCatVFRVFRVFRVFRMVFRVFRVFRVFRVFRVFRVFRVFRVFR
WX--------------------------
WDir130140140120130120130150130130130120120
WSpd7 8 7 13 11 13 10 9 6 6 6 5 5
WGst-- -- -- -- -- -- -- -- -- -- -- -- --
Raw hourly METARs
KMCO 221453Z 13007KT 10SM FEW046 SCT060 BKN080 25/20 A3013 RMK AO2 SLP200 T02500200 51014 $
KMCO 221553Z 14008KT 10SM FEW025 SCT060 BKN095 26/18 A3013 RMK AO2 SLP201 T02560183 $
KMCO 221653Z 14007KT 10SM FEW025 SCT065 OVC085 26/21 A3012 RMK AO2 SLP197 T02560211 $
KMCO 221753Z 12013KT 10SM FEW025 SCT065 BKN085 BKN130 BKN250 27/22 A3010 RMK AO2 SLP191 T02670217 10267 20233 58010 $
KMCO 221853Z 13011KT 10SM BKN019 BKN075 BKN130 OVC250 27/22 A3009 RMK AO2 SLP188 T02720222 $
KMCO 221953Z 12013KT 10SM FEW022 FEW048 BKN070 BKN130 BKN250 26/19 A3008 RMK AO2 PK WND 12028/1912 RAB18E39 SLP184 P0000 T02560189 $
KMCO 222053Z 13010KT 10SM FEW045 BKN075 BKN120 BKN250 27/22 A3006 RMK AO2 SLP178 60000 T02670217 58013 $
KMCO 222153Z 15009KT 10SM FEW045 FEW075 BKN140 BKN250 26/21 A3007 RMK AO2 SLP180 T02610211 $
KMCO 222253Z 13006KT 10SM SCT021 SCT075 BKN140 BKN250 25/22 A3007 RMK AO2 SLP181 T02500217 $
KMCO 222353Z 13006KT 10SM FEW045 SCT085 BKN140 BKN250 24/21 A3008 RMK AO2 SLP184 60000 T02440211 10278 20228 53006 $
KMCO 230053Z 13006KT 10SM SCT085 BKN140 BKN250 24/21 A3009 RMK AO2 SLP186 T02390211 $
KMCO 230153Z 12005KT 10SM FEW085 BKN140 BKN250 23/19 A3009 RMK AO2 SLP189 T02330194 $
KMCO 230253Z 12005KT 10SM FEW030 SCT085 SCT140 23/19 A3010 RMK AO2 SLP192 T02280194 53008 $



Page loaded:  03:16 UTC  |   08:16 PM Pacific  |   09:16 PM Mountain  |   10:16 PM Central  |   11:16 PM Eastern

 

ADVISORIES

FORECASTS

FORECASTS

OBSERVATIONS

USER TOOLS

ABOUT US